sensor_id;sensor_type;location;lat;lon;timestamp;P1;durP1;ratioP1;P2;durP2;ratioP2
7875;SDS011;69649;53.712;9.680;2023-08-17T00:00:15;3.87;;;2.77;;
7875;SDS011;69649;53.712;9.680;2023-08-17T00:02:43;4.50;;;2.77;;
7875;SDS011;69649;53.712;9.680;2023-08-17T00:05:09;5.10;;;2.93;;
7875;SDS011;69649;53.712;9.680;2023-08-17T00:07:35;4.27;;;2.30;;
7875;SDS011;69649;53.712;9.680;2023-08-17T00:10:02;4.07;;;2.50;;
7875;SDS011;69649;53.712;9.680;2023-08-17T00:12:28;5.73;;;2.63;;
7875;SDS011;69649;53.712;9.680;2023-08-17T00:14:54;5.27;;;2.27;;
7875;SDS011;69649;53.712;9.680;2023-08-17T00:17:21;3.87;;;2.40;;
7875;SDS011;69649;53.712;9.680;2023-08-17T00:19:48;4.87;;;2.40;;
7875;SDS011;69649;53.712;9.680;2023-08-17T00:22:15;6.10;;;2.43;;
7875;SDS011;69649;53.712;9.680;2023-08-17T00:24:41;7.67;;;3.13;;
7875;SDS011;69649;53.712;9.680;2023-08-17T00:27:09;4.00;;;2.70;;
7875;SDS011;69649;53.712;9.680;2023-08-17T00:29:36;4.60;;;2.47;;
7875;SDS011;69649;53.712;9.680;2023-08-17T00:32:02;3.40;;;2.60;;
7875;SDS011;69649;53.712;9.680;2023-08-17T00:34:29;4.07;;;2.60;;
7875;SDS011;69649;53.712;9.680;2023-08-17T00:36:54;5.33;;;2.20;;
7875;SDS011;69649;53.712;9.680;2023-08-17T00:39:20;6.93;;;2.37;;
7875;SDS011;69649;53.712;9.680;2023-08-17T00:41:46;3.57;;;2.20;;
7875;SDS011;69649;53.712;9.680;2023-08-17T00:44:12;4.80;;;2.60;;
7875;SDS011;69649;53.712;9.680;2023-08-17T00:46:38;5.90;;;2.37;;
7875;SDS011;69649;53.712;9.680;2023-08-17T00:49:04;3.50;;;3.20;;
7875;SDS011;69649;53.712;9.680;2023-08-17T00:51:30;10.20;;;2.70;;
7875;SDS011;69649;53.712;9.680;2023-08-17T00:53:58;3.33;;;2.70;;
7875;SDS011;69649;53.712;9.680;2023-08-17T00:56:25;3.27;;;2.27;;
7875;SDS011;69649;53.712;9.680;2023-08-17T00:58:52;5.27;;;3.07;;
7875;SDS011;69649;53.712;9.680;2023-08-17T01:01:19;4.10;;;3.37;;
7875;SDS011;69649;53.712;9.680;2023-08-17T01:03:45;4.20;;;2.50;;
7875;SDS011;69649;53.712;9.680;2023-08-17T01:06:11;6.67;;;3.33;;
7875;SDS011;69649;53.712;9.680;2023-08-17T01:08:37;7.93;;;3.43;;
7875;SDS011;69649;53.712;9.680;2023-08-17T01:11:18;3.80;;;2.57;;
7875;SDS011;69649;53.712;9.680;2023-08-17T01:13:54;5.23;;;2.90;;
7875;SDS011;69649;53.712;9.680;2023-08-17T01:16:31;3.27;;;2.70;;
7875;SDS011;69649;53.712;9.680;2023-08-17T01:19:00;4.83;;;3.07;;
7875;SDS011;69649;53.712;9.680;2023-08-17T01:21:29;4.73;;;2.50;;
7875;SDS011;69649;53.712;9.680;2023-08-17T01:23:58;9.97;;;3.00;;
7875;SDS011;69649;53.712;9.680;2023-08-17T01:26:25;7.53;;;2.70;;
7875;SDS011;69649;53.712;9.680;2023-08-17T01:28:50;3.50;;;2.53;;
7875;SDS011;69649;53.712;9.680;2023-08-17T01:31:21;3.30;;;3.00;;
7875;SDS011;69649;53.712;9.680;2023-08-17T01:33:54;5.37;;;3.23;;
7875;SDS011;69649;53.712;9.680;2023-08-17T01:36:25;3.73;;;2.60;;
7875;SDS011;69649;53.712;9.680;2023-08-17T01:39:04;4.13;;;2.97;;
7875;SDS011;69649;53.712;9.680;2023-08-17T01:41:32;3.63;;;2.33;;
7875;SDS011;69649;53.712;9.680;2023-08-17T01:43:59;3.77;;;2.87;;
7875;SDS011;69649;53.712;9.680;2023-08-17T01:46:29;3.87;;;2.50;;
7875;SDS011;69649;53.712;9.680;2023-08-17T01:48:55;8.13;;;2.73;;
7875;SDS011;69649;53.712;9.680;2023-08-17T01:51:21;3.53;;;2.20;;
7875;SDS011;69649;53.712;9.680;2023-08-17T01:53:47;5.30;;;3.07;;
7875;SDS011;69649;53.712;9.680;2023-08-17T01:56:13;4.50;;;2.30;;
7875;SDS011;69649;53.712;9.680;2023-08-17T01:58:39;5.50;;;2.80;;
7875;SDS011;69649;53.712;9.680;2023-08-17T02:01:05;2.97;;;2.60;;
7875;SDS011;69649;53.712;9.680;2023-08-17T02:03:31;4.93;;;2.67;;
7875;SDS011;69649;53.712;9.680;2023-08-17T02:05:58;3.63;;;2.30;;
7875;SDS011;69649;53.712;9.680;2023-08-17T02:08:24;3.97;;;2.70;;
7875;SDS011;69649;53.712;9.680;2023-08-17T02:10:50;5.70;;;2.17;;
7875;SDS011;69649;53.712;9.680;2023-08-17T02:13:16;3.23;;;2.47;;
7875;SDS011;69649;53.712;9.680;2023-08-17T02:15:43;3.60;;;2.40;;
7875;SDS011;69649;53.712;9.680;2023-08-17T02:18:09;3.77;;;2.67;;
7875;SDS011;69649;53.712;9.680;2023-08-17T02:20:34;4.83;;;2.43;;
7875;SDS011;69649;53.712;9.680;2023-08-17T02:23:00;4.80;;;2.23;;
7875;SDS011;69649;53.712;9.680;2023-08-17T02:25:26;7.10;;;3.27;;
7875;SDS011;69649;53.712;9.680;2023-08-17T02:27:54;5.20;;;3.20;;
7875;SDS011;69649;53.712;9.680;2023-08-17T02:30:20;6.10;;;2.43;;
7875;SDS011;69649;53.712;9.680;2023-08-17T02:32:46;3.93;;;2.13;;
7875;SDS011;69649;53.712;9.680;2023-08-17T02:35:11;5.00;;;2.30;;
7875;SDS011;69649;53.712;9.680;2023-08-17T02:37:37;4.53;;;3.03;;
7875;SDS011;69649;53.712;9.680;2023-08-17T02:40:03;7.37;;;2.63;;
7875;SDS011;69649;53.712;9.680;2023-08-17T02:42:30;6.53;;;3.60;;
7875;SDS011;69649;53.712;9.680;2023-08-17T02:44:55;5.47;;;2.90;;
7875;SDS011;69649;53.712;9.680;2023-08-17T02:47:21;4.40;;;2.87;;
7875;SDS011;69649;53.712;9.680;2023-08-17T02:49:47;3.37;;;2.60;;
7875;SDS011;69649;53.712;9.680;2023-08-17T02:52:14;3.77;;;2.37;;
7875;SDS011;69649;53.712;9.680;2023-08-17T02:54:40;5.20;;;3.03;;
7875;SDS011;69649;53.712;9.680;2023-08-17T02:57:06;9.13;;;2.87;;
7875;SDS011;69649;53.712;9.680;2023-08-17T02:59:32;3.97;;;2.67;;
7875;SDS011;69649;53.712;9.680;2023-08-17T03:01:57;3.87;;;2.17;;
7875;SDS011;69649;53.712;9.680;2023-08-17T03:04:23;3.30;;;2.93;;
7875;SDS011;69649;53.712;9.680;2023-08-17T03:06:49;5.03;;;2.50;;
7875;SDS011;69649;53.712;9.680;2023-08-17T03:09:15;6.30;;;3.07;;
7875;SDS011;69649;53.712;9.680;2023-08-17T03:11:41;5.17;;;2.80;;
7875;SDS011;69649;53.712;9.680;2023-08-17T03:14:07;6.63;;;2.77;;
7875;SDS011;69649;53.712;9.680;2023-08-17T03:16:32;2.77;;;2.40;;
7875;SDS011;69649;53.712;9.680;2023-08-17T03:18:58;4.87;;;3.40;;
7875;SDS011;69649;53.712;9.680;2023-08-17T03:21:24;4.33;;;2.60;;
7875;SDS011;69649;53.712;9.680;2023-08-17T03:23:50;5.70;;;2.63;;
7875;SDS011;69649;53.712;9.680;2023-08-17T03:26:16;5.37;;;2.63;;
7875;SDS011;69649;53.712;9.680;2023-08-17T03:28:41;3.77;;;3.23;;
7875;SDS011;69649;53.712;9.680;2023-08-17T03:31:07;4.80;;;2.70;;
7875;SDS011;69649;53.712;9.680;2023-08-17T03:33:34;4.77;;;2.67;;
7875;SDS011;69649;53.712;9.680;2023-08-17T03:36:01;5.53;;;2.50;;
7875;SDS011;69649;53.712;9.680;2023-08-17T03:38:27;4.13;;;2.53;;
7875;SDS011;69649;53.712;9.680;2023-08-17T03:40:53;3.50;;;2.57;;
7875;SDS011;69649;53.712;9.680;2023-08-17T03:43:19;3.77;;;2.80;;
7875;SDS011;69649;53.712;9.680;2023-08-17T03:48:06;3.53;;;2.83;;
7875;SDS011;69649;53.712;9.680;2023-08-17T03:50:32;4.87;;;2.37;;
7875;SDS011;69649;53.712;9.680;2023-08-17T03:52:58;5.23;;;2.93;;
7875;SDS011;69649;53.712;9.680;2023-08-17T03:55:24;3.77;;;3.37;;
7875;SDS011;69649;53.712;9.680;2023-08-17T03:57:50;3.60;;;2.83;;
7875;SDS011;69649;53.712;9.680;2023-08-17T04:00:15;4.87;;;3.00;;
7875;SDS011;69649;53.712;9.680;2023-08-17T04:02:42;3.73;;;3.10;;
7875;SDS011;69649;53.712;9.680;2023-08-17T04:05:08;3.23;;;2.70;;
7875;SDS011;69649;53.712;9.680;2023-08-17T04:07:34;10.43;;;2.73;;
7875;SDS011;69649;53.712;9.680;2023-08-17T04:10:02;7.07;;;2.73;;
7875;SDS011;69649;53.712;9.680;2023-08-17T04:12:30;7.00;;;3.33;;
7875;SDS011;69649;53.712;9.680;2023-08-17T04:14:56;3.53;;;2.93;;
7875;SDS011;69649;53.712;9.680;2023-08-17T04:17:22;4.20;;;3.10;;
7875;SDS011;69649;53.712;9.680;2023-08-17T04:19:47;6.47;;;2.77;;
7875;SDS011;69649;53.712;9.680;2023-08-17T04:22:13;6.17;;;2.63;;
7875;SDS011;69649;53.712;9.680;2023-08-17T04:24:39;4.70;;;3.93;;
7875;SDS011;69649;53.712;9.680;2023-08-17T04:27:05;5.50;;;3.17;;
7875;SDS011;69649;53.712;9.680;2023-08-17T04:29:31;8.77;;;3.00;;
7875;SDS011;69649;53.712;9.680;2023-08-17T04:31:57;6.13;;;3.20;;
7875;SDS011;69649;53.712;9.680;2023-08-17T04:34:24;7.70;;;3.13;;
7875;SDS011;69649;53.712;9.680;2023-08-17T04:36:50;4.47;;;3.03;;
7875;SDS011;69649;53.712;9.680;2023-08-17T04:39:16;4.17;;;3.50;;
7875;SDS011;69649;53.712;9.680;2023-08-17T04:41:42;2.90;;;2.60;;
7875;SDS011;69649;53.712;9.680;2023-08-17T04:44:08;6.00;;;2.77;;
7875;SDS011;69649;53.712;9.680;2023-08-17T04:46:35;3.80;;;2.50;;
7875;SDS011;69649;53.712;9.680;2023-08-17T04:49:01;5.67;;;3.40;;
7875;SDS011;69649;53.712;9.680;2023-08-17T04:51:27;6.73;;;3.13;;
7875;SDS011;69649;53.712;9.680;2023-08-17T04:53:53;6.47;;;3.70;;
7875;SDS011;69649;53.712;9.680;2023-08-17T04:56:19;6.63;;;3.27;;
7875;SDS011;69649;53.712;9.680;2023-08-17T04:58:44;5.07;;;3.43;;
7875;SDS011;69649;53.712;9.680;2023-08-17T05:01:10;6.57;;;3.03;;
7875;SDS011;69649;53.712;9.680;2023-08-17T05:03:36;7.07;;;3.50;;
7875;SDS011;69649;53.712;9.680;2023-08-17T05:06:02;3.67;;;3.07;;
7875;SDS011;69649;53.712;9.680;2023-08-17T05:08:28;7.50;;;3.27;;
7875;SDS011;69649;53.712;9.680;2023-08-17T05:10:55;5.67;;;3.03;;
7875;SDS011;69649;53.712;9.680;2023-08-17T05:13:20;4.03;;;3.20;;
7875;SDS011;69649;53.712;9.680;2023-08-17T05:15:46;9.30;;;3.60;;
7875;SDS011;69649;53.712;9.680;2023-08-17T05:18:12;3.50;;;3.07;;
7875;SDS011;69649;53.712;9.680;2023-08-17T05:20:37;3.47;;;2.90;;
7875;SDS011;69649;53.712;9.680;2023-08-17T05:23:03;6.63;;;3.70;;
7875;SDS011;69649;53.712;9.680;2023-08-17T05:25:29;6.03;;;3.83;;
7875;SDS011;69649;53.712;9.680;2023-08-17T05:27:55;5.23;;;3.47;;
7875;SDS011;69649;53.712;9.680;2023-08-17T05:30:21;6.40;;;3.27;;
7875;SDS011;69649;53.712;9.680;2023-08-17T05:32:47;6.60;;;3.67;;
7875;SDS011;69649;53.712;9.680;2023-08-17T05:35:13;6.67;;;3.70;;
7875;SDS011;69649;53.712;9.680;2023-08-17T05:37:39;6.73;;;4.00;;
7875;SDS011;69649;53.712;9.680;2023-08-17T05:40:05;5.57;;;3.17;;
7875;SDS011;69649;53.712;9.680;2023-08-17T05:42:33;4.47;;;3.23;;
7875;SDS011;69649;53.712;9.680;2023-08-17T05:44:58;4.63;;;3.03;;
7875;SDS011;69649;53.712;9.680;2023-08-17T05:47:24;6.20;;;3.70;;
7875;SDS011;69649;53.712;9.680;2023-08-17T05:49:50;9.17;;;4.27;;
7875;SDS011;69649;53.712;9.680;2023-08-17T05:52:16;8.87;;;4.07;;
7875;SDS011;69649;53.712;9.680;2023-08-17T05:54:41;4.60;;;3.87;;
7875;SDS011;69649;53.712;9.680;2023-08-17T05:57:08;7.47;;;3.30;;
7875;SDS011;69649;53.712;9.680;2023-08-17T05:59:35;8.83;;;4.33;;
7875;SDS011;69649;53.712;9.680;2023-08-17T06:02:01;7.30;;;4.47;;
7875;SDS011;69649;53.712;9.680;2023-08-17T06:04:26;4.43;;;3.57;;
7875;SDS011;69649;53.712;9.680;2023-08-17T06:06:52;8.83;;;6.17;;
7875;SDS011;69649;53.712;9.680;2023-08-17T06:09:18;8.37;;;4.07;;
7875;SDS011;69649;53.712;9.680;2023-08-17T06:11:43;4.93;;;3.67;;
7875;SDS011;69649;53.712;9.680;2023-08-17T06:14:09;8.20;;;4.60;;
7875;SDS011;69649;53.712;9.680;2023-08-17T06:16:35;9.27;;;3.93;;
7875;SDS011;69649;53.712;9.680;2023-08-17T06:19:02;6.63;;;5.17;;
7875;SDS011;69649;53.712;9.680;2023-08-17T06:21:28;8.17;;;4.17;;
7875;SDS011;69649;53.712;9.680;2023-08-17T06:23:53;5.47;;;4.17;;
7875;SDS011;69649;53.712;9.680;2023-08-17T06:26:19;4.73;;;4.20;;
7875;SDS011;69649;53.712;9.680;2023-08-17T06:28:45;6.10;;;4.13;;
7875;SDS011;69649;53.712;9.680;2023-08-17T06:31:11;6.40;;;4.17;;
7875;SDS011;69649;53.712;9.680;2023-08-17T06:33:41;9.07;;;4.60;;
7875;SDS011;69649;53.712;9.680;2023-08-17T06:36:07;5.60;;;4.37;;
7875;SDS011;69649;53.712;9.680;2023-08-17T06:38:33;7.03;;;5.23;;
7875;SDS011;69649;53.712;9.680;2023-08-17T06:40:58;5.37;;;4.70;;
7875;SDS011;69649;53.712;9.680;2023-08-17T06:43:24;6.33;;;4.17;;
7875;SDS011;69649;53.712;9.680;2023-08-17T06:45:50;8.80;;;4.67;;
7875;SDS011;69649;53.712;9.680;2023-08-17T06:48:16;6.80;;;4.83;;
7875;SDS011;69649;53.712;9.680;2023-08-17T06:50:42;5.67;;;4.70;;
7875;SDS011;69649;53.712;9.680;2023-08-17T06:53:08;8.17;;;4.80;;
7875;SDS011;69649;53.712;9.680;2023-08-17T06:55:33;9.03;;;4.33;;
7875;SDS011;69649;53.712;9.680;2023-08-17T06:57:59;6.63;;;4.20;;
7875;SDS011;69649;53.712;9.680;2023-08-17T07:00:25;8.37;;;4.20;;
7875;SDS011;69649;53.712;9.680;2023-08-17T07:02:51;6.73;;;5.50;;
7875;SDS011;69649;53.712;9.680;2023-08-17T07:05:17;7.03;;;4.63;;
7875;SDS011;69649;53.712;9.680;2023-08-17T07:07:43;9.33;;;4.87;;
7875;SDS011;69649;53.712;9.680;2023-08-17T07:10:10;15.10;;;6.63;;
7875;SDS011;69649;53.712;9.680;2023-08-17T07:12:37;9.87;;;5.07;;
7875;SDS011;69649;53.712;9.680;2023-08-17T07:15:03;7.47;;;4.13;;
7875;SDS011;69649;53.712;9.680;2023-08-17T07:17:30;11.83;;;4.57;;
7875;SDS011;69649;53.712;9.680;2023-08-17T07:19:56;6.27;;;4.90;;
7875;SDS011;69649;53.712;9.680;2023-08-17T07:22:22;5.03;;;4.53;;
7875;SDS011;69649;53.712;9.680;2023-08-17T07:24:48;9.93;;;4.47;;
7875;SDS011;69649;53.712;9.680;2023-08-17T07:27:13;8.83;;;4.83;;
7875;SDS011;69649;53.712;9.680;2023-08-17T07:29:39;7.70;;;4.33;;
7875;SDS011;69649;53.712;9.680;2023-08-17T07:32:05;13.03;;;4.97;;
7875;SDS011;69649;53.712;9.680;2023-08-17T07:34:31;6.97;;;4.97;;
7875;SDS011;69649;53.712;9.680;2023-08-17T07:36:57;8.03;;;4.27;;
7875;SDS011;69649;53.712;9.680;2023-08-17T07:39:23;7.43;;;4.30;;
7875;SDS011;69649;53.712;9.680;2023-08-17T07:41:49;8.57;;;5.40;;
7875;SDS011;69649;53.712;9.680;2023-08-17T07:44:14;7.53;;;4.83;;
7875;SDS011;69649;53.712;9.680;2023-08-17T07:46:40;8.80;;;4.30;;
7875;SDS011;69649;53.712;9.680;2023-08-17T07:49:06;7.87;;;5.30;;
7875;SDS011;69649;53.712;9.680;2023-08-17T07:51:32;5.83;;;4.57;;
7875;SDS011;69649;53.712;9.680;2023-08-17T07:53:59;5.23;;;4.00;;
7875;SDS011;69649;53.712;9.680;2023-08-17T07:56:25;5.97;;;4.47;;
7875;SDS011;69649;53.712;9.680;2023-08-17T07:58:53;6.97;;;4.07;;
7875;SDS011;69649;53.712;9.680;2023-08-17T08:01:19;5.10;;;4.10;;
7875;SDS011;69649;53.712;9.680;2023-08-17T08:03:44;5.57;;;4.43;;
7875;SDS011;69649;53.712;9.680;2023-08-17T08:06:10;7.20;;;4.53;;
7875;SDS011;69649;53.712;9.680;2023-08-17T08:08:37;11.03;;;4.70;;
7875;SDS011;69649;53.712;9.680;2023-08-17T08:11:03;6.93;;;4.13;;
7875;SDS011;69649;53.712;9.680;2023-08-17T08:13:30;5.67;;;4.60;;
7875;SDS011;69649;53.712;9.680;2023-08-17T08:15:58;4.80;;;3.87;;
7875;SDS011;69649;53.712;9.680;2023-08-17T08:18:24;6.93;;;4.40;;
7875;SDS011;69649;53.712;9.680;2023-08-17T08:20:51;7.33;;;4.30;;
7875;SDS011;69649;53.712;9.680;2023-08-17T08:23:17;6.00;;;3.83;;
7875;SDS011;69649;53.712;9.680;2023-08-17T08:25:43;5.43;;;3.60;;
7875;SDS011;69649;53.712;9.680;2023-08-17T08:28:09;7.13;;;4.63;;
7875;SDS011;69649;53.712;9.680;2023-08-17T08:30:35;9.27;;;4.30;;
7875;SDS011;69649;53.712;9.680;2023-08-17T08:33:01;4.97;;;4.57;;
7875;SDS011;69649;53.712;9.680;2023-08-17T08:35:28;4.90;;;4.40;;
7875;SDS011;69649;53.712;9.680;2023-08-17T08:37:54;4.77;;;4.10;;
7875;SDS011;69649;53.712;9.680;2023-08-17T08:40:27;5.43;;;4.20;;
7875;SDS011;69649;53.712;9.680;2023-08-17T08:42:55;9.17;;;4.50;;
7875;SDS011;69649;53.712;9.680;2023-08-17T08:45:23;5.77;;;4.53;;
7875;SDS011;69649;53.712;9.680;2023-08-17T08:47:49;4.37;;;3.97;;
7875;SDS011;69649;53.712;9.680;2023-08-17T08:50:19;7.60;;;4.37;;
7875;SDS011;69649;53.712;9.680;2023-08-17T08:53:01;4.40;;;4.00;;
7875;SDS011;69649;53.712;9.680;2023-08-17T08:55:29;4.30;;;3.90;;
7875;SDS011;69649;53.712;9.680;2023-08-17T08:57:57;5.87;;;3.90;;
7875;SDS011;69649;53.712;9.680;2023-08-17T09:00:24;4.63;;;3.30;;
7875;SDS011;69649;53.712;9.680;2023-08-17T09:02:51;5.80;;;4.10;;
7875;SDS011;69649;53.712;9.680;2023-08-17T09:05:17;6.53;;;4.00;;
7875;SDS011;69649;53.712;9.680;2023-08-17T09:07:44;4.87;;;4.17;;
7875;SDS011;69649;53.712;9.680;2023-08-17T09:10:12;5.40;;;4.23;;
7875;SDS011;69649;53.712;9.680;2023-08-17T09:12:39;5.93;;;4.13;;
7875;SDS011;69649;53.712;9.680;2023-08-17T09:15:05;6.63;;;4.30;;
7875;SDS011;69649;53.712;9.680;2023-08-17T09:17:32;6.57;;;4.73;;
7875;SDS011;69649;53.712;9.680;2023-08-17T09:19:59;5.83;;;4.13;;
7875;SDS011;69649;53.712;9.680;2023-08-17T09:22:40;4.57;;;4.10;;
7875;SDS011;69649;53.712;9.680;2023-08-17T09:25:05;4.27;;;3.93;;
7875;SDS011;69649;53.712;9.680;2023-08-17T09:27:31;7.77;;;4.03;;
7875;SDS011;69649;53.712;9.680;2023-08-17T09:30:01;6.83;;;3.70;;
7875;SDS011;69649;53.712;9.680;2023-08-17T09:32:30;5.33;;;3.87;;
7875;SDS011;69649;53.712;9.680;2023-08-17T09:34:56;7.33;;;4.70;;
7875;SDS011;69649;53.712;9.680;2023-08-17T09:37:22;5.47;;;4.83;;
7875;SDS011;69649;53.712;9.680;2023-08-17T09:39:48;3.77;;;3.43;;
7875;SDS011;69649;53.712;9.680;2023-08-17T09:42:14;6.93;;;4.13;;
7875;SDS011;69649;53.712;9.680;2023-08-17T09:44:42;5.80;;;4.27;;
7875;SDS011;69649;53.712;9.680;2023-08-17T09:47:08;5.67;;;4.40;;
7875;SDS011;69649;53.712;9.680;2023-08-17T09:49:36;6.50;;;3.70;;
7875;SDS011;69649;53.712;9.680;2023-08-17T09:52:01;5.67;;;3.40;;
7875;SDS011;69649;53.712;9.680;2023-08-17T09:54:28;7.20;;;4.10;;
7875;SDS011;69649;53.712;9.680;2023-08-17T09:56:56;4.50;;;3.83;;
7875;SDS011;69649;53.712;9.680;2023-08-17T09:59:23;6.47;;;4.00;;
7875;SDS011;69649;53.712;9.680;2023-08-17T10:01:50;4.50;;;3.30;;
7875;SDS011;69649;53.712;9.680;2023-08-17T10:04:19;4.10;;;3.63;;
7875;SDS011;69649;53.712;9.680;2023-08-17T10:06:48;5.27;;;3.57;;
7875;SDS011;69649;53.712;9.680;2023-08-17T10:09:31;4.23;;;3.60;;
7875;SDS011;69649;53.712;9.680;2023-08-17T10:12:06;4.47;;;3.67;;
7875;SDS011;69649;53.712;9.680;2023-08-17T10:14:35;6.00;;;4.23;;
7875;SDS011;69649;53.712;9.680;2023-08-17T10:17:07;5.90;;;4.13;;
7875;SDS011;69649;53.712;9.680;2023-08-17T10:22:18;6.50;;;3.73;;
7875;SDS011;69649;53.712;9.680;2023-08-17T10:24:48;8.57;;;4.80;;
7875;SDS011;69649;53.712;9.680;2023-08-17T10:27:16;6.07;;;4.40;;
7875;SDS011;69649;53.712;9.680;2023-08-17T10:29:42;4.97;;;4.50;;
7875;SDS011;69649;53.712;9.680;2023-08-17T10:32:09;6.27;;;4.23;;
7875;SDS011;69649;53.712;9.680;2023-08-17T10:34:37;5.17;;;4.67;;
7875;SDS011;69649;53.712;9.680;2023-08-17T10:37:04;5.87;;;5.20;;
7875;SDS011;69649;53.712;9.680;2023-08-17T10:39:30;5.50;;;4.67;;
7875;SDS011;69649;53.712;9.680;2023-08-17T10:41:57;8.40;;;4.83;;
7875;SDS011;69649;53.712;9.680;2023-08-17T10:44:40;5.73;;;4.50;;
7875;SDS011;69649;53.712;9.680;2023-08-17T10:49:51;4.50;;;4.10;;
7875;SDS011;69649;53.712;9.680;2023-08-17T10:54:59;6.33;;;4.33;;
7875;SDS011;69649;53.712;9.680;2023-08-17T10:57:30;6.17;;;4.20;;
7875;SDS011;69649;53.712;9.680;2023-08-17T11:00:07;4.83;;;3.93;;
7875;SDS011;69649;53.712;9.680;2023-08-17T11:03:01;5.03;;;4.50;;
7875;SDS011;69649;53.712;9.680;2023-08-17T11:08:09;5.43;;;4.23;;
7875;SDS011;69649;53.712;9.680;2023-08-17T11:10:38;4.77;;;4.17;;
7875;SDS011;69649;53.712;9.680;2023-08-17T11:13:04;5.53;;;3.97;;
7875;SDS011;69649;53.712;9.680;2023-08-17T11:15:39;4.87;;;4.47;;
7875;SDS011;69649;53.712;9.680;2023-08-17T11:18:11;5.73;;;4.20;;
7875;SDS011;69649;53.712;9.680;2023-08-17T11:20:38;5.00;;;4.27;;
7875;SDS011;69649;53.712;9.680;2023-08-17T11:23:06;4.83;;;3.90;;
7875;SDS011;69649;53.712;9.680;2023-08-17T11:25:33;5.27;;;4.30;;
7875;SDS011;69649;53.712;9.680;2023-08-17T11:28:03;5.10;;;4.60;;
7875;SDS011;69649;53.712;9.680;2023-08-17T11:30:31;5.63;;;5.00;;
7875;SDS011;69649;53.712;9.680;2023-08-17T11:32:59;4.47;;;3.53;;
7875;SDS011;69649;53.712;9.680;2023-08-17T11:35:25;5.17;;;4.40;;
7875;SDS011;69649;53.712;9.680;2023-08-17T11:37:51;4.60;;;3.80;;
7875;SDS011;69649;53.712;9.680;2023-08-17T11:40:17;7.27;;;4.77;;
7875;SDS011;69649;53.712;9.680;2023-08-17T11:42:44;5.27;;;4.33;;
7875;SDS011;69649;53.712;9.680;2023-08-17T11:45:11;4.37;;;3.97;;
7875;SDS011;69649;53.712;9.680;2023-08-17T11:47:38;6.33;;;4.30;;
7875;SDS011;69649;53.712;9.680;2023-08-17T11:50:05;10.17;;;5.57;;
7875;SDS011;69649;53.712;9.680;2023-08-17T11:52:33;7.20;;;4.43;;
7875;SDS011;69649;53.712;9.680;2023-08-17T11:55:01;5.97;;;4.27;;
7875;SDS011;69649;53.712;9.680;2023-08-17T11:57:30;5.43;;;4.47;;
7875;SDS011;69649;53.712;9.680;2023-08-17T11:59:57;7.30;;;5.27;;
7875;SDS011;69649;53.712;9.680;2023-08-17T12:02:24;9.97;;;4.87;;
7875;SDS011;69649;53.712;9.680;2023-08-17T12:04:50;5.20;;;4.30;;
7875;SDS011;69649;53.712;9.680;2023-08-17T12:07:17;7.57;;;4.80;;
7875;SDS011;69649;53.712;9.680;2023-08-17T12:09:47;9.20;;;5.50;;
7875;SDS011;69649;53.712;9.680;2023-08-17T12:12:17;6.07;;;5.03;;
7875;SDS011;69649;53.712;9.680;2023-08-17T12:14:46;7.67;;;5.77;;
7875;SDS011;69649;53.712;9.680;2023-08-17T12:17:21;5.87;;;5.07;;
7875;SDS011;69649;53.712;9.680;2023-08-17T12:19:44;6.93;;;4.77;;
7875;SDS011;69649;53.712;9.680;2023-08-17T12:22:12;7.30;;;6.03;;
7875;SDS011;69649;53.712;9.680;2023-08-17T12:24:39;6.23;;;5.50;;
7875;SDS011;69649;53.712;9.680;2023-08-17T12:27:09;5.53;;;4.50;;
7875;SDS011;69649;53.712;9.680;2023-08-17T12:29:32;7.67;;;4.70;;
7875;SDS011;69649;53.712;9.680;2023-08-17T12:32:00;8.10;;;5.17;;
7875;SDS011;69649;53.712;9.680;2023-08-17T12:34:27;6.13;;;4.30;;
7875;SDS011;69649;53.712;9.680;2023-08-17T12:36:53;6.40;;;4.67;;
7875;SDS011;69649;53.712;9.680;2023-08-17T12:39:19;6.90;;;4.37;;
7875;SDS011;69649;53.712;9.680;2023-08-17T12:41:45;9.33;;;4.60;;
7875;SDS011;69649;53.712;9.680;2023-08-17T12:44:10;6.37;;;4.53;;
7875;SDS011;69649;53.712;9.680;2023-08-17T12:46:39;6.37;;;4.80;;
7875;SDS011;69649;53.712;9.680;2023-08-17T12:49:06;5.80;;;5.20;;
7875;SDS011;69649;53.712;9.680;2023-08-17T12:51:32;6.03;;;4.57;;
7875;SDS011;69649;53.712;9.680;2023-08-17T12:56:37;6.37;;;4.80;;
7875;SDS011;69649;53.712;9.680;2023-08-17T12:59:03;6.63;;;4.10;;
7875;SDS011;69649;53.712;9.680;2023-08-17T13:01:29;5.20;;;4.60;;
7875;SDS011;69649;53.712;9.680;2023-08-17T13:03:55;7.13;;;5.43;;
7875;SDS011;69649;53.712;9.680;2023-08-17T13:06:21;3.87;;;2.97;;
7875;SDS011;69649;53.712;9.680;2023-08-17T13:08:47;3.67;;;2.97;;
7875;SDS011;69649;53.712;9.680;2023-08-17T13:11:13;3.17;;;2.87;;
7875;SDS011;69649;53.712;9.680;2023-08-17T13:13:39;4.23;;;2.97;;
7875;SDS011;69649;53.712;9.680;2023-08-17T13:16:04;3.07;;;2.77;;
7875;SDS011;69649;53.712;9.680;2023-08-17T13:18:30;4.13;;;2.73;;
7875;SDS011;69649;53.712;9.680;2023-08-17T13:20:56;2.67;;;2.47;;
7875;SDS011;69649;53.712;9.680;2023-08-17T13:23:22;4.03;;;2.90;;
7875;SDS011;69649;53.712;9.680;2023-08-17T13:25:48;3.10;;;2.47;;
7875;SDS011;69649;53.712;9.680;2023-08-17T13:28:14;4.63;;;2.30;;
7875;SDS011;69649;53.712;9.680;2023-08-17T13:30:39;2.93;;;2.77;;
7875;SDS011;69649;53.712;9.680;2023-08-17T13:33:05;3.67;;;1.93;;
7875;SDS011;69649;53.712;9.680;2023-08-17T13:35:32;3.70;;;3.40;;
7875;SDS011;69649;53.712;9.680;2023-08-17T13:37:58;1.93;;;1.70;;
7875;SDS011;69649;53.712;9.680;2023-08-17T13:40:24;1.90;;;1.80;;
7875;SDS011;69649;53.712;9.680;2023-08-17T13:42:50;2.00;;;1.83;;
7875;SDS011;69649;53.712;9.680;2023-08-17T13:45:16;2.03;;;1.93;;
7875;SDS011;69649;53.712;9.680;2023-08-17T13:47:42;2.33;;;2.13;;
7875;SDS011;69649;53.712;9.680;2023-08-17T13:50:08;5.27;;;1.87;;
7875;SDS011;69649;53.712;9.680;2023-08-17T13:52:35;1.70;;;1.60;;
7875;SDS011;69649;53.712;9.680;2023-08-17T13:55:01;3.03;;;1.80;;
7875;SDS011;69649;53.712;9.680;2023-08-17T13:57:27;2.23;;;2.13;;
7875;SDS011;69649;53.712;9.680;2023-08-17T13:59:52;5.00;;;2.10;;
7875;SDS011;69649;53.712;9.680;2023-08-17T14:02:18;3.30;;;2.10;;
7875;SDS011;69649;53.712;9.680;2023-08-17T14:04:45;2.40;;;2.30;;
7875;SDS011;69649;53.712;9.680;2023-08-17T14:07:10;4.17;;;2.30;;
7875;SDS011;69649;53.712;9.680;2023-08-17T14:09:36;2.90;;;2.47;;
7875;SDS011;69649;53.712;9.680;2023-08-17T14:12:02;2.07;;;1.97;;
7875;SDS011;69649;53.712;9.680;2023-08-17T14:14:30;3.63;;;2.97;;
7875;SDS011;69649;53.712;9.680;2023-08-17T14:16:56;2.40;;;2.10;;
7875;SDS011;69649;53.712;9.680;2023-08-17T14:19:22;3.10;;;2.90;;
7875;SDS011;69649;53.712;9.680;2023-08-17T14:21:49;2.53;;;2.33;;
7875;SDS011;69649;53.712;9.680;2023-08-17T14:24:14;2.93;;;2.63;;
7875;SDS011;69649;53.712;9.680;2023-08-17T14:26:40;2.20;;;1.63;;
7875;SDS011;69649;53.712;9.680;2023-08-17T14:29:06;2.93;;;2.80;;
7875;SDS011;69649;53.712;9.680;2023-08-17T14:31:32;2.20;;;2.00;;
7875;SDS011;69649;53.712;9.680;2023-08-17T14:33:57;3.87;;;2.20;;
7875;SDS011;69649;53.712;9.680;2023-08-17T14:36:23;1.80;;;1.67;;
7875;SDS011;69649;53.712;9.680;2023-08-17T14:38:49;2.37;;;2.27;;
7875;SDS011;69649;53.712;9.680;2023-08-17T14:41:15;1.93;;;1.83;;
7875;SDS011;69649;53.712;9.680;2023-08-17T14:43:42;2.47;;;2.37;;
7875;SDS011;69649;53.712;9.680;2023-08-17T14:46:07;1.53;;;1.43;;
7875;SDS011;69649;53.712;9.680;2023-08-17T14:48:34;2.00;;;1.90;;
7875;SDS011;69649;53.712;9.680;2023-08-17T14:51:00;2.30;;;2.17;;
7875;SDS011;69649;53.712;9.680;2023-08-17T14:53:26;1.80;;;1.70;;
7875;SDS011;69649;53.712;9.680;2023-08-17T14:55:51;1.73;;;1.57;;
7875;SDS011;69649;53.712;9.680;2023-08-17T14:58:17;2.97;;;1.70;;
7875;SDS011;69649;53.712;9.680;2023-08-17T15:00:43;2.90;;;2.07;;
7875;SDS011;69649;53.712;9.680;2023-08-17T15:03:09;2.10;;;2.00;;
7875;SDS011;69649;53.712;9.680;2023-08-17T15:05:35;2.13;;;1.63;;
7875;SDS011;69649;53.712;9.680;2023-08-17T15:08:01;1.80;;;1.70;;
7875;SDS011;69649;53.712;9.680;2023-08-17T15:10:28;1.63;;;1.53;;
7875;SDS011;69649;53.712;9.680;2023-08-17T15:12:54;2.10;;;2.00;;